Helton, KY (40840)

5:52 PM EDT on July 28, 2016 (GMT -0400)
Harlan | | Change Station
Active Advisory: Flash Flood Watch

Elev 1552 ft 36.86 °N, 83.36 °W | Updated 17 minutes ago

Overcast
Overcast
70 °F
Feels Like 70 °F
N
0
Wind Variable Wind from North

Today
High -- | Low -- °F
--% Chance of Precip.
Yesterday
High -- | Low -- °F
Precip. -- in
Pressure 29.95 in
Visibility -9999.0 miles
Clouds Mostly Cloudy 1000 ft
Mostly Cloudy 2500 ft
Overcast 3700 ft
Dew Point 68 °F
Humidity 94%
Rainfall 0.00 in
Snow Depth Not available.
6:36 AM 8:43 PM
Waning Crescent, 28% visible
METAR KI35 282135Z AUTO 00000KT BKN010 BKN025 OVC037 21/20 A2995 RMK AO1
Pressure 29.95 in
Visibility -9999.0 miles
Clouds Mostly Cloudy 1000 ft
Mostly Cloudy 2500 ft
Overcast 3700 ft
Dew Point 68 °F
Humidity 94%
Rainfall 0.00 in
Snow Depth Not available.
6:36 AM 8:43 PM
Waning Crescent, 28% visible
METAR KI35 282135Z AUTO 00000KT BKN010 BKN025 OVC037 21/20 A2995 RMK AO1

10-Day Weather Forecast

Almanac

Astronomy

Jul. 28, 2016 Rise Set
Actual Time
Civil Twilight
Nautical Twilight
Astronomical Twilight
Moon
Length of Visible Light
Length of Day
Tomorrow will be .
, % of the Moon is Illuminated

Today's Extremes

State Highs State Lows

Community

WunderPhotos

Upload Photos

1,928,224 photos uploaded!

WunderBlog® & News

Nearby

Air Quality

  Air Quality AQ Index Pollutant
Not available.

Snow Depth

Station Depth Elevation

Earthquake Activity

City Distance Mag. Time & Date
Minimum magnitude displayed is 2.5.

Coastal Water Temperatures

Place Temperature

Stations

Nearby Weather Stations

Station Location Temp. Windchill Dew Point Humidity Wind Precip. Elev Updated Type
                   

Watches & Warnings

Flash Flood Watch
Issued: 5:11 PM EDT Jul. 28, 2016 – National Weather Service

... Flash Flood Watch remains in effect through Friday morning...

The Flash Flood Watch continues for

* portions of northeast Kentucky and southeast Kentucky...
including the following areas... in northeast Kentucky... Martin
County. In southeast Kentucky... Bell... Floyd... Harlan...
Knott... Leslie... Letcher... Perry... and Pike counties.

* It is in effect through early Friday morning.

* Heavy rain will remain possible over the area through the
evening hours... which could result in localized flash flooding.

Precautionary/preparedness actions...

A Flash Flood Watch means that conditions may develop that lead
to flash flooding. Flash flooding is a very dangerous situation.

You should monitor later forecasts and be prepared to take action
should flash flood warnings be issued.